createdAt,value
2022-08-17T00:01:01.710Z,17.20
2022-08-17T00:03:39.112Z,17.20
2022-08-17T00:06:19.785Z,17.30
2022-08-17T00:08:57.987Z,17.20
2022-08-17T00:11:37.147Z,17.10
2022-08-17T00:14:13.658Z,17.00
2022-08-17T00:16:56.452Z,17.00
2022-08-17T00:19:32.633Z,17.00
2022-08-17T00:22:31.814Z,17.00
2022-08-17T00:25:02.001Z,16.90
2022-08-17T00:27:35.663Z,17.00
2022-08-17T00:30:13.080Z,16.90
2022-08-17T00:33:23.055Z,16.90
2022-08-17T00:35:43.386Z,16.80
2022-08-17T00:38:17.225Z,16.80
2022-08-17T00:40:56.001Z,16.60
2022-08-17T00:43:37.818Z,16.50
2022-08-17T00:46:15.969Z,16.50
2022-08-17T00:48:49.990Z,16.50
2022-08-17T00:51:32.266Z,16.60
2022-08-17T00:54:11.851Z,16.60
2022-08-17T00:56:51.211Z,16.60
2022-08-17T00:59:30.900Z,16.60
2022-08-17T01:02:06.292Z,16.60
2022-08-17T01:04:40.483Z,16.60
2022-08-17T01:07:14.884Z,16.50
2022-08-17T01:09:48.541Z,16.50
2022-08-17T01:12:23.523Z,16.50
2022-08-17T01:14:56.681Z,16.50
2022-08-17T01:17:29.846Z,16.50
2022-08-17T01:20:03.664Z,16.60
2022-08-17T01:22:38.239Z,16.60
2022-08-17T01:25:13.272Z,16.70
2022-08-17T01:27:47.091Z,16.60
2022-08-17T01:30:57.921Z,16.60
2022-08-17T01:33:13.471Z,16.70
2022-08-17T01:35:46.579Z,16.70
2022-08-17T01:38:27.235Z,16.60
2022-08-17T01:41:04.996Z,16.60
2022-08-17T01:43:44.042Z,16.60
2022-08-17T01:46:24.692Z,16.60
2022-08-17T01:48:58.610Z,16.50
2022-08-17T01:51:33.658Z,16.50
2022-08-17T01:54:12.939Z,16.50
2022-08-17T01:56:51.711Z,16.40
2022-08-17T01:59:24.922Z,16.40
2022-08-17T02:01:58.285Z,16.40
2022-08-17T02:04:31.966Z,16.30
2022-08-17T02:07:05.241Z,16.40
2022-08-17T02:09:39.709Z,16.30
2022-08-17T02:12:39.206Z,16.30
2022-08-17T02:15:12.434Z,16.20
2022-08-17T02:17:45.785Z,16.20
2022-08-17T02:20:42.359Z,16.20
2022-08-17T02:23:14.458Z,16.10
2022-08-17T02:25:49.576Z,16.10
2022-08-17T02:28:22.700Z,16.10
2022-08-17T02:31:02.002Z,16.10
2022-08-17T02:33:42.756Z,16.10
2022-08-17T02:36:16.724Z,16.00
2022-08-17T02:38:49.959Z,16.00
2022-08-17T02:41:24.371Z,16.00
2022-08-17T02:43:57.470Z,16.10
2022-08-17T02:46:32.098Z,16.00
2022-08-17T02:49:06.379Z,15.90
2022-08-17T02:51:39.496Z,15.90
2022-08-17T02:54:41.221Z,15.90
2022-08-17T02:57:07.310Z,15.90
2022-08-17T02:59:46.798Z,15.80
2022-08-17T03:02:22.023Z,15.80
2022-08-17T03:04:55.166Z,15.80
2022-08-17T03:07:28.292Z,15.70
2022-08-17T03:10:01.508Z,15.70
2022-08-17T03:12:39.595Z,15.60
2022-08-17T03:15:17.489Z,15.60
2022-08-17T03:17:52.070Z,15.60
2022-08-17T03:20:29.550Z,15.60
2022-08-17T03:23:03.041Z,15.50
2022-08-17T03:25:41.103Z,15.50
2022-08-17T03:28:18.146Z,15.40
2022-08-17T03:30:52.143Z,15.50
2022-08-17T03:33:25.313Z,15.40
2022-08-17T03:35:59.460Z,15.40
2022-08-17T03:38:38.986Z,15.40
2022-08-17T03:41:13.879Z,15.40
2022-08-17T03:43:48.379Z,15.40
2022-08-17T03:46:38.844Z,15.30
2022-08-17T03:49:29.527Z,15.30
2022-08-17T03:52:28.572Z,15.30
2022-08-17T03:55:36.136Z,15.30
2022-08-17T03:58:10.210Z,15.30
2022-08-17T04:00:46.243Z,15.40
2022-08-17T04:03:19.700Z,15.30
2022-08-17T04:05:52.769Z,15.30
2022-08-17T04:08:25.895Z,15.20
2022-08-17T04:11:00.605Z,15.30
2022-08-17T04:13:33.698Z,15.20
2022-08-17T04:16:08.633Z,15.20
2022-08-17T04:18:41.762Z,15.20
2022-08-17T04:21:15.022Z,15.20
2022-08-17T04:23:48.565Z,15.10
2022-08-17T04:26:52.847Z,15.20
2022-08-17T04:29:16.767Z,15.20
2022-08-17T04:31:51.969Z,15.20
2022-08-17T04:34:25.142Z,15.20
2022-08-17T04:36:58.250Z,15.30
2022-08-17T04:39:33.804Z,15.30
2022-08-17T04:42:17.037Z,15.30
2022-08-17T04:44:50.207Z,15.20
2022-08-17T04:47:24.699Z,15.10
2022-08-17T04:49:57.934Z,15.00
2022-08-17T04:52:43.523Z,15.00
2022-08-17T04:55:16.949Z,15.10
2022-08-17T04:57:50.063Z,15.20
2022-08-17T05:00:25.760Z,15.10
2022-08-17T05:03:00.362Z,15.20
2022-08-17T05:05:37.176Z,15.20
2022-08-17T05:08:10.901Z,15.30
2022-08-17T05:10:45.316Z,15.40
2022-08-17T05:13:22.698Z,15.30
2022-08-17T05:15:59.403Z,15.40
2022-08-17T05:18:34.224Z,15.40
2022-08-17T05:21:07.929Z,15.50
2022-08-17T05:23:43.329Z,15.50
2022-08-17T05:26:26.705Z,15.60
2022-08-17T05:29:02.801Z,15.90
2022-08-17T05:31:36.192Z,16.20
2022-08-17T05:34:11.520Z,16.60
2022-08-17T05:36:45.180Z,17.30
2022-08-17T05:39:18.309Z,18.10
2022-08-17T05:41:51.436Z,18.70
2022-08-17T05:44:24.601Z,18.90
2022-08-17T05:47:00.836Z,18.90
2022-08-17T05:49:35.297Z,18.60
2022-08-17T05:52:23.548Z,18.60
2022-08-17T05:55:14.199Z,19.30
2022-08-17T05:58:01.080Z,19.70
2022-08-17T06:00:42.309Z,20.10
2022-08-17T06:03:29.683Z,20.20
2022-08-17T06:06:31.281Z,20.20
2022-08-17T06:09:33.921Z,20.40
2022-08-17T06:12:27.642Z,20.90
2022-08-17T06:15:16.792Z,20.70
2022-08-17T06:17:53.912Z,20.80
2022-08-17T06:20:31.259Z,21.00
2022-08-17T06:23:12.067Z,21.50
2022-08-17T06:25:49.575Z,21.70
2022-08-17T06:28:32.314Z,22.10
2022-08-17T06:31:14.049Z,22.40
2022-08-17T06:33:47.547Z,22.70
2022-08-17T06:36:42.398Z,23.30
2022-08-17T06:39:32.466Z,23.70
2022-08-17T06:43:02.206Z,24.00
2022-08-17T06:45:16.679Z,24.10
2022-08-17T06:48:00.482Z,24.00
2022-08-17T06:50:38.393Z,24.10
2022-08-17T06:53:22.221Z,24.50
2022-08-17T06:56:02.733Z,24.80
2022-08-17T06:58:38.800Z,25.20
2022-08-17T07:01:18.536Z,25.30
2022-08-17T07:03:57.390Z,25.40
2022-08-17T07:06:38.217Z,25.50
2022-08-17T07:09:20.062Z,25.50
2022-08-17T07:11:58.113Z,25.60
2022-08-17T07:14:37.619Z,25.80
2022-08-17T07:17:13.959Z,26.10
2022-08-17T07:19:50.639Z,26.00
2022-08-17T07:22:58.138Z,26.30
2022-08-17T07:25:31.334Z,26.60
2022-08-17T07:28:07.843Z,26.60
2022-08-17T07:30:54.467Z,26.30
2022-08-17T07:33:36.777Z,26.50
2022-08-17T07:36:30.015Z,26.60
2022-08-17T07:39:05.119Z,26.80
2022-08-17T07:41:58.650Z,27.00
2022-08-17T07:44:48.271Z,27.00
2022-08-17T07:47:40.594Z,27.10
2022-08-17T07:50:28.871Z,27.10
2022-08-17T07:53:18.456Z,27.40
2022-08-17T07:55:53.273Z,27.50
2022-08-17T07:58:26.505Z,28.00
2022-08-17T08:01:12.384Z,28.60
2022-08-17T08:03:51.818Z,28.90
2022-08-17T08:06:27.342Z,28.80
2022-08-17T08:09:01.820Z,28.60
2022-08-17T08:11:40.183Z,28.70
2022-08-17T08:14:29.528Z,28.70
2022-08-17T08:17:09.397Z,28.70
2022-08-17T08:19:42.726Z,29.10
2022-08-17T08:22:26.216Z,29.30
2022-08-17T08:25:15.254Z,29.20
2022-08-17T08:28:03.673Z,29.40
2022-08-17T08:30:44.556Z,29.40
2022-08-17T08:33:42.757Z,29.40
2022-08-17T08:37:02.142Z,29.70
2022-08-17T08:39:45.243Z,29.80
2022-08-17T08:42:27.898Z,29.70
2022-08-17T08:45:13.664Z,30.00
2022-08-17T08:48:12.724Z,29.70
2022-08-17T08:51:06.228Z,29.80
2022-08-17T08:53:59.851Z,29.60
2022-08-17T08:56:39.051Z,29.80
2022-08-17T08:59:22.670Z,30.00
2022-08-17T09:02:06.524Z,30.10
2022-08-17T09:05:18.051Z,29.80
2022-08-17T09:08:00.983Z,29.20
2022-08-17T09:10:45.266Z,29.00
2022-08-17T09:13:30.020Z,29.20
2022-08-17T09:16:11.511Z,29.30
2022-08-17T09:19:00.665Z,29.40
2022-08-17T09:21:47.710Z,29.50
2022-08-17T09:24:30.152Z,29.40
2022-08-17T09:27:10.080Z,29.40
2022-08-17T09:29:53.085Z,29.50
2022-08-17T09:32:39.009Z,29.30
2022-08-17T09:35:19.389Z,29.20
2022-08-17T09:38:06.653Z,29.20
2022-08-17T09:40:50.156Z,29.10
2022-08-17T09:43:35.308Z,28.80
2022-08-17T09:46:16.945Z,28.80
2022-08-17T09:48:57.984Z,28.60
2022-08-17T09:51:36.893Z,28.80
2022-08-17T09:54:38.154Z,28.50
2022-08-17T09:57:30.820Z,28.30
2022-08-17T10:00:17.269Z,28.10
2022-08-17T10:03:08.374Z,28.20
2022-08-17T10:05:47.910Z,28.00
2022-08-17T10:08:34.733Z,27.90
2022-08-17T10:11:24.630Z,27.70
2022-08-17T10:14:36.406Z,27.80
2022-08-17T10:17:18.837Z,27.80
2022-08-17T10:20:01.671Z,27.90
2022-08-17T10:23:00.705Z,27.90
2022-08-17T10:25:56.105Z,28.20
2022-08-17T10:28:39.343Z,28.10
2022-08-17T10:31:40.085Z,28.00
2022-08-17T10:34:41.455Z,28.00
2022-08-17T10:38:05.604Z,27.90
2022-08-17T10:40:47.739Z,27.70
2022-08-17T10:43:34.532Z,27.80
2022-08-17T10:46:30.418Z,27.70
2022-08-17T10:49:34.951Z,27.40
2022-08-17T10:52:49.966Z,27.30
2022-08-17T10:55:25.760Z,27.00
2022-08-17T10:58:21.048Z,26.90
2022-08-17T11:00:59.913Z,26.80
2022-08-17T11:03:33.834Z,26.80
2022-08-17T11:06:18.173Z,26.60
2022-08-17T11:09:27.576Z,26.50
2022-08-17T11:12:29.245Z,26.40
2022-08-17T11:15:19.614Z,26.20
2022-08-17T11:18:25.497Z,26.00
2022-08-17T11:21:56.568Z,25.50
2022-08-17T11:24:35.905Z,24.70
2022-08-17T11:27:24.853Z,23.80
2022-08-17T11:30:02.577Z,23.30
2022-08-17T11:32:47.492Z,22.90
2022-08-17T11:35:39.899Z,22.60
2022-08-17T11:38:28.450Z,22.70
2022-08-17T11:41:20.697Z,22.90
2022-08-17T11:44:11.497Z,23.00
2022-08-17T11:47:18.974Z,23.10
2022-08-17T11:50:55.615Z,23.20
2022-08-17T11:58:00.200Z,23.40
2022-08-17T12:00:56.414Z,23.60
2022-08-17T12:03:55.620Z,23.70
2022-08-17T12:06:42.893Z,23.80
2022-08-17T12:09:20.517Z,24.00
2022-08-17T12:12:12.361Z,24.10
2022-08-17T12:15:11.355Z,24.20
2022-08-17T12:17:53.915Z,24.40
2022-08-17T12:20:33.381Z,24.60
2022-08-17T12:23:13.547Z,24.60
2022-08-17T12:25:55.299Z,24.70
2022-08-17T12:28:32.769Z,24.70
2022-08-17T12:31:14.664Z,24.80
2022-08-17T12:33:51.694Z,24.90
2022-08-17T12:36:28.567Z,25.10
2022-08-17T12:39:14.214Z,25.00
2022-08-17T12:41:51.545Z,24.90
2022-08-17T12:44:29.138Z,24.90
2022-08-17T12:47:22.416Z,25.20
2022-08-17T12:50:08.201Z,25.10
2022-08-17T12:53:02.801Z,25.20
2022-08-17T12:55:38.846Z,25.20
2022-08-17T12:58:18.179Z,25.40
2022-08-17T13:00:57.005Z,25.40
2022-08-17T13:03:42.154Z,25.40
2022-08-17T13:06:28.815Z,25.40
2022-08-17T13:09:12.076Z,25.40
2022-08-17T13:11:51.421Z,25.40
2022-08-17T13:14:24.599Z,25.30
2022-08-17T13:17:01.002Z,25.50
2022-08-17T13:19:40.752Z,25.90
2022-08-17T13:22:14.374Z,26.20
2022-08-17T13:24:54.440Z,26.10
2022-08-17T13:27:29.832Z,26.30
2022-08-17T13:30:08.777Z,26.50
2022-08-17T13:32:45.620Z,26.50
2022-08-17T13:35:44.254Z,26.80
2022-08-17T13:38:45.619Z,27.10
2022-08-17T13:41:33.563Z,27.10
2022-08-17T13:44:31.789Z,27.20
2022-08-17T13:47:15.654Z,27.20
2022-08-17T13:49:49.527Z,27.20
2022-08-17T13:52:39.897Z,27.40
2022-08-17T13:55:20.944Z,27.70
2022-08-17T13:58:07.227Z,27.60
2022-08-17T14:00:40.801Z,27.50
2022-08-17T14:03:15.253Z,27.40
2022-08-17T14:05:50.087Z,27.40
2022-08-17T14:08:26.402Z,27.50
2022-08-17T14:10:59.820Z,27.60
2022-08-17T14:13:32.997Z,27.70
2022-08-17T14:16:06.572Z,28.00
2022-08-17T14:18:56.701Z,28.10
2022-08-17T14:21:30.335Z,28.20
2022-08-17T14:24:05.458Z,28.30
2022-08-17T14:26:38.574Z,28.30
2022-08-17T14:29:14.873Z,28.20
2022-08-17T14:31:54.268Z,28.00
2022-08-17T14:34:27.958Z,27.90
2022-08-17T14:37:01.040Z,28.00
2022-08-17T14:39:35.490Z,28.00
2022-08-17T14:42:11.408Z,28.00
2022-08-17T14:44:44.514Z,28.00
2022-08-17T14:47:17.653Z,28.10
2022-08-17T14:49:50.855Z,28.10
2022-08-17T14:52:24.196Z,28.20
2022-08-17T14:54:58.883Z,28.20
2022-08-17T14:57:34.182Z,28.30
2022-08-17T15:00:10.003Z,28.30
2022-08-17T15:02:50.928Z,28.40
2022-08-17T15:05:27.109Z,28.30
2022-08-17T15:08:00.983Z,28.30
2022-08-17T15:10:36.147Z,28.20
2022-08-17T15:13:19.155Z,28.20
2022-08-17T15:15:52.947Z,28.30
2022-08-17T15:18:26.026Z,28.30
2022-08-17T15:20:59.192Z,28.30
2022-08-17T15:23:32.926Z,28.30
2022-08-17T15:26:08.363Z,28.30
2022-08-17T15:28:41.428Z,28.30
2022-08-17T15:31:14.859Z,28.30
2022-08-17T15:33:47.930Z,28.40
2022-08-17T15:36:21.082Z,28.30
2022-08-17T15:38:54.184Z,28.30
2022-08-17T15:41:29.414Z,28.40
2022-08-17T15:44:02.861Z,28.40
2022-08-17T15:46:35.925Z,28.40
2022-08-17T15:49:09.782Z,28.40
2022-08-17T15:51:42.860Z,28.30
2022-08-17T15:54:18.871Z,28.30
2022-08-17T15:56:57.023Z,28.30
2022-08-17T15:59:30.955Z,28.40
2022-08-17T16:03:14.331Z,28.30
2022-08-17T16:04:57.994Z,28.40
2022-08-17T16:07:31.605Z,28.40
2022-08-17T16:10:06.588Z,28.40
2022-08-17T16:12:41.886Z,28.30
2022-08-17T16:15:16.239Z,28.20
2022-08-17T16:17:49.359Z,28.30
2022-08-17T16:20:22.596Z,28.40
2022-08-17T16:22:56.165Z,28.30
2022-08-17T16:25:52.573Z,28.10
2022-08-17T16:28:35.629Z,27.90
2022-08-17T16:31:09.749Z,27.80
2022-08-17T16:33:43.440Z,27.70
2022-08-17T16:36:37.414Z,27.60
2022-08-17T16:39:10.479Z,27.50
2022-08-17T16:41:47.040Z,27.50
2022-08-17T16:44:22.944Z,27.40
2022-08-17T16:46:56.033Z,27.40
2022-08-17T16:49:37.105Z,27.40
2022-08-17T16:52:11.477Z,27.30
2022-08-17T16:54:46.722Z,27.30
2022-08-17T16:57:20.324Z,27.30
2022-08-17T16:59:55.157Z,27.20
2022-08-17T17:02:31.549Z,27.20
2022-08-17T17:05:24.448Z,27.10
2022-08-17T17:08:07.664Z,27.20
2022-08-17T17:10:46.157Z,27.10
2022-08-17T17:13:26.885Z,27.00
2022-08-17T17:16:15.609Z,26.90
2022-08-17T17:19:06.933Z,26.90
2022-08-17T17:21:48.009Z,26.80
2022-08-17T17:24:30.633Z,26.70
2022-08-17T17:27:20.937Z,26.60
2022-08-17T17:30:07.944Z,26.60
2022-08-17T17:32:50.333Z,26.50
2022-08-17T17:35:27.546Z,26.40
2022-08-17T17:38:07.385Z,26.30
2022-08-17T17:40:44.342Z,26.10
2022-08-17T17:43:38.508Z,26.00
2022-08-17T17:46:28.219Z,25.90
2022-08-17T17:49:03.629Z,25.90
2022-08-17T17:52:10.280Z,25.70
2022-08-17T17:55:00.033Z,25.50
2022-08-17T17:57:50.792Z,25.40
2022-08-17T18:00:26.227Z,25.30
2022-08-17T18:03:21.894Z,25.30
2022-08-17T18:06:27.030Z,25.10
2022-08-17T18:09:11.813Z,25.10
2022-08-17T18:12:06.510Z,24.90
2022-08-17T18:15:00.790Z,24.90
2022-08-17T18:17:34.088Z,24.80
2022-08-17T18:20:08.068Z,24.70
2022-08-17T18:22:42.477Z,24.60
2022-08-17T18:25:44.395Z,24.50
2022-08-17T18:28:26.846Z,24.50
2022-08-17T18:31:15.638Z,24.40
2022-08-17T18:33:52.373Z,24.30
2022-08-17T18:36:31.471Z,24.20
2022-08-17T18:39:17.012Z,24.10
2022-08-17T18:41:53.372Z,24.00
2022-08-17T18:44:30.278Z,23.90
2022-08-17T18:47:13.907Z,23.90
2022-08-17T18:49:49.893Z,23.80
2022-08-17T18:52:26.121Z,23.60
2022-08-17T18:55:09.649Z,23.50
2022-08-17T18:57:46.780Z,23.50
2022-08-17T19:00:35.635Z,23.50
2022-08-17T19:03:24.653Z,23.40
2022-08-17T19:06:18.839Z,23.30
2022-08-17T19:08:51.967Z,23.20
2022-08-17T19:11:31.685Z,23.10
2022-08-17T19:14:10.721Z,23.10
2022-08-17T19:16:51.414Z,23.00
2022-08-17T19:19:32.958Z,23.00
2022-08-17T19:22:14.605Z,22.90
2022-08-17T19:25:12.447Z,22.90
2022-08-17T19:28:01.060Z,22.90
2022-08-17T19:30:37.074Z,22.80
2022-08-17T19:33:15.174Z,22.80
2022-08-17T19:36:01.915Z,22.80
2022-08-17T19:38:46.848Z,22.70
2022-08-17T19:41:28.196Z,22.60
2022-08-17T19:44:19.761Z,22.50
2022-08-17T19:47:06.178Z,22.50
2022-08-17T19:49:53.960Z,22.40
2022-08-17T19:52:44.315Z,22.40
2022-08-17T19:55:31.529Z,22.30
2022-08-17T19:58:17.739Z,22.30
2022-08-17T20:00:53.869Z,22.20
2022-08-17T20:03:34.098Z,22.20
2022-08-17T20:06:13.883Z,22.10
2022-08-17T20:08:59.633Z,22.10
2022-08-17T20:11:38.846Z,22.10
2022-08-17T20:14:15.997Z,22.00
2022-08-17T20:16:51.104Z,22.00
2022-08-17T20:19:29.197Z,21.90
2022-08-17T20:22:11.132Z,21.80
2022-08-17T20:24:54.509Z,21.70
2022-08-17T20:27:31.474Z,21.70
2022-08-17T20:30:11.712Z,21.70
2022-08-17T20:32:57.965Z,21.60
2022-08-17T20:35:33.729Z,21.50
2022-08-17T20:38:12.797Z,21.40
2022-08-17T20:41:12.392Z,21.40
2022-08-17T20:44:02.662Z,21.50
2022-08-17T20:46:58.236Z,21.40
2022-08-17T20:49:50.761Z,21.30
2022-08-17T20:52:56.355Z,21.30
2022-08-17T20:55:55.568Z,21.30
2022-08-17T20:58:48.698Z,21.20
2022-08-17T21:01:39.481Z,21.10
2022-08-17T21:04:47.389Z,21.10
2022-08-17T21:07:29.118Z,21.10
2022-08-17T21:10:15.366Z,21.10
2022-08-17T21:12:55.212Z,21.10
2022-08-17T21:15:34.968Z,21.10
2022-08-17T21:18:16.844Z,21.20
2022-08-17T21:21:17.839Z,21.10
2022-08-17T21:24:09.247Z,21.10
2022-08-17T21:26:57.222Z,21.10
2022-08-17T21:29:33.995Z,21.10
2022-08-17T21:32:23.692Z,21.00
2022-08-17T21:35:31.037Z,21.00
2022-08-17T21:38:05.933Z,20.90
2022-08-17T21:40:39.624Z,20.90
2022-08-17T21:43:27.111Z,20.90
2022-08-17T21:46:06.795Z,21.00
2022-08-17T21:48:48.069Z,21.00
2022-08-17T21:51:27.425Z,21.00
2022-08-17T21:54:06.039Z,21.00
2022-08-17T21:56:47.205Z,21.00
2022-08-17T21:59:27.426Z,21.00
2022-08-17T22:02:03.207Z,21.10
2022-08-17T22:04:39.608Z,21.10
2022-08-17T22:07:14.831Z,21.50
2022-08-17T22:09:51.013Z,21.90
2022-08-17T22:12:25.119Z,22.00
2022-08-17T22:15:02.154Z,22.20
2022-08-17T22:17:40.149Z,22.30
2022-08-17T22:20:17.706Z,22.40
2022-08-17T22:23:31.316Z,22.30
2022-08-17T22:26:12.751Z,22.10
2022-08-17T22:28:50.257Z,22.00
2022-08-17T22:31:26.032Z,21.80
2022-08-17T22:34:14.478Z,21.70
2022-08-17T22:36:47.568Z,21.50
2022-08-17T22:39:44.802Z,21.40
2022-08-17T22:42:19.367Z,21.30
2022-08-17T22:44:54.400Z,21.20
2022-08-17T22:47:32.861Z,21.10
2022-08-17T22:50:18.706Z,21.00
2022-08-17T22:53:17.864Z,20.90
2022-08-17T22:56:13.435Z,20.80
2022-08-17T22:59:13.276Z,20.70
2022-08-17T23:02:11.634Z,20.60
2022-08-17T23:04:48.578Z,20.40
2022-08-17T23:07:22.643Z,20.30
2022-08-17T23:09:55.765Z,20.20
2022-08-17T23:12:29.198Z,20.10
2022-08-17T23:15:04.160Z,20.00
2022-08-17T23:17:38.199Z,19.80
2022-08-17T23:20:15.130Z,19.70
2022-08-17T23:22:51.736Z,19.60
2022-08-17T23:25:29.546Z,19.50
2022-08-17T23:28:05.851Z,19.40
2022-08-17T23:30:43.926Z,19.30
2022-08-17T23:33:22.384Z,19.20
2022-08-17T23:35:55.460Z,19.10
2022-08-17T23:38:29.947Z,19.10
2022-08-17T23:41:09.618Z,19.10
2022-08-17T23:43:45.866Z,18.90
2022-08-17T23:46:25.042Z,18.90
2022-08-17T23:48:58.122Z,18.90
2022-08-17T23:51:38.252Z,18.90
2022-08-17T23:54:20.478Z,18.90
2022-08-17T23:56:53.827Z,18.90
2022-08-17T23:59:27.478Z,18.90
